»·PEaware :: N80VJ KSMX-KBFL

N80VJ :: KSMX-KBFL

FLIGHT INFORMATION

Flight Status: Arrived
Operator: Privately registered:
United States
More flights under this callsign
Pilot: Christopher S. (28961)
Aircraft: CIRRUS SR-20
(SR20)
More flights by this aircraft type
Origin: KSMX Santa Maria Pub/Capt Hancock
United States
Destination: KBFL Meadows
United States
More flights between these airports :: More routes between these airports
Route: +
File this flight plan on PilotEdge
Remarks:
Altitude:
(Current/Filed)
0ft
Speed:
(Current/Filed)
0kts
Departed: 12-May-20 01:41 PM
Arrived: 12-May-20 02:24 PM
Distance/Time
Traveled:
76nm/0:43
Distance/Time
To Go:
Arrived

Flight Plot

Page will automatically refresh every two minutes.


Map Options




Map Legend


Flown Route
Filed Route
Departure Airport
Arrival Airport
Navaid (VOR, NDB)
Fix

Horizontal Profiles

Position Reports

Time Latitude Longitude Heading Altitude Ground
Speed
12-May-20 13:30 34.898625 -120.448202 136 263ft 0kts
12-May-20 13:31 34.898625 -120.448202 136 263ft 0kts
12-May-20 13:32 34.898625 -120.448202 136 263ft 0kts
12-May-20 13:33 34.898625 -120.448202 136 263ft 0kts
12-May-20 13:34 34.898625 -120.448202 136 263ft 0kts
12-May-20 13:35 34.897927 -120.448433 241 263ft 0kts
12-May-20 13:36 34.896154 -120.447405 135 263ft 19kts
12-May-20 13:37 34.893412 -120.445174 185 263ft 0kts
12-May-20 13:38 34.893412 -120.445174 185 263ft 0kts
12-May-20 13:39 34.893336 -120.445186 191 263ft 5kts
12-May-20 13:40 34.898289 -120.451917 318 293ft 94kts
12-May-20 13:41 34.916034 -120.459997 7 1010ft 107kts
12-May-20 13:43 34.926159 -120.432216 76 1834ft 122kts
12-May-20 13:44 34.930033 -120.398718 74 2593ft 121kts
12-May-20 13:45 34.940336 -120.368203 50 3254ft 123kts
12-May-20 13:46 34.950490 -120.339691 73 3845ft 131kts
12-May-20 13:47 34.960170 -120.293433 57 4690ft 130kts
12-May-20 13:48 34.975542 -120.254601 60 5410ft 132kts
12-May-20 13:49 34.995320 -120.225629 33 6016ft 128kts
12-May-20 13:50 35.002862 -120.188892 108 6474ft 147kts
12-May-20 13:51 35.008941 -120.153340 59 7082ft 133kts
12-May-20 13:52 35.023941 -120.126802 42 7500ft 131kts
12-May-20 13:53 35.041808 -120.104329 26 7930ft 126kts
12-May-20 13:54 35.062017 -120.092546 10 8289ft 123kts
12-May-20 13:55 35.078135 -120.074312 48 8536ft 138kts
12-May-20 13:56 35.085969 -120.053352 77 8642ft 149kts
12-May-20 13:57 35.089328 -120.033501 70 8521ft 165kts
12-May-20 13:58 35.096111 -120.008505 66 8226ft 179kts
12-May-20 13:58 35.104483 -119.987068 54 7541ft 199kts
12-May-20 13:59 35.116262 -119.960547 63 7040ft 179kts
12-May-20 14:01 35.124854 -119.927660 75 5798ft 183kts
12-May-20 14:02 35.135772 -119.871109 73 4348ft 170kts
12-May-20 14:02 35.144367 -119.821770 75 4176ft 171kts
12-May-20 14:03 35.152917 -119.768688 76 4284ft 154kts
12-May-20 14:05 35.160298 -119.727861 71 4754ft 138kts
12-May-20 14:05 35.165427 -119.708397 66 4944ft 139kts
12-May-20 14:06 35.174736 -119.686922 59 5149ft 139kts
12-May-20 14:07 35.191477 -119.639809 68 5531ft 143kts
12-May-20 14:08 35.199286 -119.577013 110 5914ft 150kts
12-May-20 14:09 35.180643 -119.515851 118 6338ft 146kts
12-May-20 14:10 35.153001 -119.459419 114 6505ft 158kts
12-May-20 14:11 35.130653 -119.387288 114 5538ft 157kts
12-May-20 14:12 35.106034 -119.321382 101 3783ft 153kts
12-May-20 14:13 35.118027 -119.247322 65 2555ft 165kts
12-May-20 14:14 35.159026 -119.170087 43 2656ft 158kts
12-May-20 14:15 35.220052 -119.120386 17 2735ft 147kts
12-May-20 14:16 35.278293 -119.092790 25 2851ft 150kts
12-May-20 14:17 35.315317 -119.067267 27 2862ft 125kts
12-May-20 14:18 35.342744 -119.051345 16 2414ft 114kts
12-May-20 14:19 35.370555 -119.033019 27 1761ft 99kts
12-May-20 14:20 35.391324 -119.022979 11 1305ft 75kts
12-May-20 14:21 35.409592 -119.026057 310 1287ft 73kts
12-May-20 14:22 35.423629 -119.043798 312 604ft 80kts
12-May-20 14:23 35.435710 -119.058422 315 487ft 34kts
12-May-20 14:24 35.438131 -119.060014 55 494ft 0kts
12-May-20 14:25 35.436925 -119.057703 134 493ft 12kts
12-May-20 14:26 35.436538 -119.055048 103 497ft 3kts
12-May-20 14:27 35.436422 -119.055002 201 497ft 0kts
12-May-20 14:28 35.436422 -119.055002 201 497ft 0kts
12-May-20 14:29 35.436422 -119.055002 201 497ft 0kts
12-May-20 14:30 35.436422 -119.055002 201 497ft 0kts
12-May-20 14:31 35.436422 -119.055002 201 497ft 0kts
12-May-20 14:32 35.436422 -119.055002 201 497ft 0kts
12-May-20 14:33 35.436422 -119.055002 201 497ft 0kts
12-May-20 14:34 35.436422 -119.055002 201 497ft 0kts
12-May-20 14:35 35.436422 -119.055002 201 497ft 0kts
12-May-20 14:36 35.436422 -119.055002 201 497ft 0kts
12-May-20 14:37 35.436422 -119.055002 201 497ft 0kts
12-May-20 14:38 35.436422 -119.055002 201 497ft 0kts

Navigation Log

Ident Type
Flight plan parsing failed, navigation log unavailable